sensor_id;sensor_type;location;lat;lon;timestamp;P1;durP1;ratioP1;P2;durP2;ratioP2
22064;SDS011;11197;53.110;8.468;2023-04-15T00:00:05;8.75;;;7.10;;
22064;SDS011;11197;53.110;8.468;2023-04-15T00:02:38;9.18;;;6.88;;
22064;SDS011;11197;53.110;8.468;2023-04-15T00:05:04;9.98;;;7.07;;
22064;SDS011;11197;53.110;8.468;2023-04-15T00:07:30;9.73;;;7.05;;
22064;SDS011;11197;53.110;8.468;2023-04-15T00:09:57;10.10;;;6.90;;
22064;SDS011;11197;53.110;8.468;2023-04-15T00:12:23;10.55;;;6.85;;
22064;SDS011;11197;53.110;8.468;2023-04-15T00:14:50;8.63;;;6.53;;
22064;SDS011;11197;53.110;8.468;2023-04-15T00:17:16;8.20;;;6.25;;
22064;SDS011;11197;53.110;8.468;2023-04-15T00:19:42;10.52;;;6.90;;
22064;SDS011;11197;53.110;8.468;2023-04-15T00:22:11;11.93;;;7.10;;
22064;SDS011;11197;53.110;8.468;2023-04-15T00:24:37;11.15;;;7.10;;
22064;SDS011;11197;53.110;8.468;2023-04-15T00:27:03;10.23;;;6.90;;
22064;SDS011;11197;53.110;8.468;2023-04-15T00:29:30;11.73;;;7.18;;
22064;SDS011;11197;53.110;8.468;2023-04-15T00:31:56;10.27;;;6.47;;
22064;SDS011;11197;53.110;8.468;2023-04-15T00:34:22;8.82;;;6.80;;
22064;SDS011;11197;53.110;8.468;2023-04-15T00:36:49;10.98;;;6.75;;
22064;SDS011;11197;53.110;8.468;2023-04-15T00:39:15;10.48;;;7.07;;
22064;SDS011;11197;53.110;8.468;2023-04-15T00:41:42;10.20;;;7.30;;
22064;SDS011;11197;53.110;8.468;2023-04-15T00:44:08;11.52;;;7.00;;
22064;SDS011;11197;53.110;8.468;2023-04-15T00:46:35;9.23;;;6.60;;
22064;SDS011;11197;53.110;8.468;2023-04-15T00:49:02;9.25;;;6.88;;
22064;SDS011;11197;53.110;8.468;2023-04-15T00:51:29;9.55;;;7.18;;
22064;SDS011;11197;53.110;8.468;2023-04-15T00:53:58;10.35;;;7.30;;
22064;SDS011;11197;53.110;8.468;2023-04-15T00:56:25;10.18;;;7.50;;
22064;SDS011;11197;53.110;8.468;2023-04-15T00:58:53;8.77;;;6.60;;
22064;SDS011;11197;53.110;8.468;2023-04-15T01:01:22;11.07;;;7.38;;
22064;SDS011;11197;53.110;8.468;2023-04-15T01:03:49;11.77;;;6.65;;
22064;SDS011;11197;53.110;8.468;2023-04-15T01:06:16;8.43;;;6.18;;
22064;SDS011;11197;53.110;8.468;2023-04-15T01:08:43;10.48;;;7.22;;
22064;SDS011;11197;53.110;8.468;2023-04-15T01:11:12;9.52;;;6.93;;
22064;SDS011;11197;53.110;8.468;2023-04-15T01:13:40;9.73;;;7.05;;
22064;SDS011;11197;53.110;8.468;2023-04-15T01:16:06;10.50;;;7.20;;
22064;SDS011;11197;53.110;8.468;2023-04-15T01:18:33;10.43;;;6.95;;
22064;SDS011;11197;53.110;8.468;2023-04-15T01:21:00;9.38;;;6.85;;
22064;SDS011;11197;53.110;8.468;2023-04-15T01:23:29;11.32;;;7.70;;
22064;SDS011;11197;53.110;8.468;2023-04-15T01:25:55;9.70;;;6.30;;
22064;SDS011;11197;53.110;8.468;2023-04-15T01:28:22;9.00;;;6.60;;
22064;SDS011;11197;53.110;8.468;2023-04-15T01:30:48;11.52;;;7.15;;
22064;SDS011;11197;53.110;8.468;2023-04-15T01:33:14;9.57;;;7.72;;
22064;SDS011;11197;53.110;8.468;2023-04-15T01:35:40;10.70;;;8.02;;
22064;SDS011;11197;53.110;8.468;2023-04-15T01:38:08;9.77;;;7.55;;
22064;SDS011;11197;53.110;8.468;2023-04-15T01:40:36;10.05;;;6.88;;
22064;SDS011;11197;53.110;8.468;2023-04-15T01:43:02;9.85;;;7.45;;
22064;SDS011;11197;53.110;8.468;2023-04-15T01:45:28;11.40;;;7.60;;
22064;SDS011;11197;53.110;8.468;2023-04-15T01:47:54;10.60;;;8.18;;
22064;SDS011;11197;53.110;8.468;2023-04-15T01:50:20;11.05;;;7.80;;
22064;SDS011;11197;53.110;8.468;2023-04-15T01:52:46;10.93;;;8.00;;
22064;SDS011;11197;53.110;8.468;2023-04-15T01:55:12;12.10;;;8.23;;
22064;SDS011;11197;53.110;8.468;2023-04-15T01:57:38;10.15;;;7.53;;
22064;SDS011;11197;53.110;8.468;2023-04-15T02:00:05;12.25;;;8.85;;
22064;SDS011;11197;53.110;8.468;2023-04-15T02:02:38;12.93;;;9.55;;
22064;SDS011;11197;53.110;8.468;2023-04-15T02:05:04;13.45;;;9.43;;
22064;SDS011;11197;53.110;8.468;2023-04-15T02:07:30;13.18;;;10.10;;
22064;SDS011;11197;53.110;8.468;2023-04-15T02:09:56;13.48;;;9.23;;
22064;SDS011;11197;53.110;8.468;2023-04-15T02:12:23;14.57;;;10.00;;
22064;SDS011;11197;53.110;8.468;2023-04-15T02:14:49;13.40;;;10.02;;
22064;SDS011;11197;53.110;8.468;2023-04-15T02:17:15;16.73;;;11.70;;
22064;SDS011;11197;53.110;8.468;2023-04-15T02:19:41;15.52;;;11.52;;
22064;SDS011;11197;53.110;8.468;2023-04-15T02:22:07;16.83;;;12.13;;
22064;SDS011;11197;53.110;8.468;2023-04-15T02:24:33;19.50;;;12.93;;
22064;SDS011;11197;53.110;8.468;2023-04-15T02:27:01;16.38;;;11.63;;
22064;SDS011;11197;53.110;8.468;2023-04-15T02:29:27;17.27;;;12.07;;
22064;SDS011;11197;53.110;8.468;2023-04-15T02:31:53;19.38;;;12.85;;
22064;SDS011;11197;53.110;8.468;2023-04-15T02:34:19;18.20;;;12.93;;
22064;SDS011;11197;53.110;8.468;2023-04-15T02:36:45;17.52;;;12.70;;
22064;SDS011;11197;53.110;8.468;2023-04-15T02:39:14;18.17;;;12.98;;
22064;SDS011;11197;53.110;8.468;2023-04-15T02:41:43;17.02;;;12.27;;
22064;SDS011;11197;53.110;8.468;2023-04-15T02:44:12;18.75;;;13.32;;
22064;SDS011;11197;53.110;8.468;2023-04-15T02:46:38;19.17;;;13.13;;
22064;SDS011;11197;53.110;8.468;2023-04-15T02:49:05;19.55;;;12.80;;
22064;SDS011;11197;53.110;8.468;2023-04-15T02:51:34;17.55;;;12.05;;
22064;SDS011;11197;53.110;8.468;2023-04-15T02:53:59;16.02;;;12.02;;
22064;SDS011;11197;53.110;8.468;2023-04-15T02:56:25;19.17;;;13.45;;
22064;SDS011;11197;53.110;8.468;2023-04-15T02:58:51;20.05;;;13.07;;
22064;SDS011;11197;53.110;8.468;2023-04-15T03:01:20;22.75;;;14.80;;
22064;SDS011;11197;53.110;8.468;2023-04-15T03:03:46;19.02;;;12.45;;
22064;SDS011;11197;53.110;8.468;2023-04-15T03:06:12;19.40;;;12.60;;
22064;SDS011;11197;53.110;8.468;2023-04-15T03:08:44;21.80;;;14.00;;
22064;SDS011;11197;53.110;8.468;2023-04-15T03:11:11;20.83;;;14.30;;
22064;SDS011;11197;53.110;8.468;2023-04-15T03:13:38;19.58;;;12.85;;
22064;SDS011;11197;53.110;8.468;2023-04-15T03:16:13;19.15;;;13.45;;
22064;SDS011;11197;53.110;8.468;2023-04-15T03:18:40;17.17;;;12.75;;
22064;SDS011;11197;53.110;8.468;2023-04-15T03:21:06;17.92;;;13.35;;
22064;SDS011;11197;53.110;8.468;2023-04-15T03:23:34;21.63;;;14.88;;
22064;SDS011;11197;53.110;8.468;2023-04-15T03:26:01;20.58;;;13.40;;
22064;SDS011;11197;53.110;8.468;2023-04-15T03:28:29;24.85;;;16.08;;
22064;SDS011;11197;53.110;8.468;2023-04-15T03:30:56;22.75;;;15.27;;
22064;SDS011;11197;53.110;8.468;2023-04-15T03:33:22;21.85;;;14.93;;
22064;SDS011;11197;53.110;8.468;2023-04-15T03:35:48;23.50;;;15.70;;
22064;SDS011;11197;53.110;8.468;2023-04-15T03:38:15;24.65;;;15.82;;
22064;SDS011;11197;53.110;8.468;2023-04-15T03:40:41;21.45;;;15.50;;
22064;SDS011;11197;53.110;8.468;2023-04-15T03:43:07;19.80;;;13.52;;
22064;SDS011;11197;53.110;8.468;2023-04-15T03:45:33;20.77;;;13.57;;
22064;SDS011;11197;53.110;8.468;2023-04-15T03:47:59;19.23;;;13.23;;
22064;SDS011;11197;53.110;8.468;2023-04-15T03:50:25;19.83;;;13.85;;
22064;SDS011;11197;53.110;8.468;2023-04-15T03:52:52;20.05;;;14.25;;
22064;SDS011;11197;53.110;8.468;2023-04-15T03:55:17;20.23;;;14.00;;
22064;SDS011;11197;53.110;8.468;2023-04-15T03:57:44;18.48;;;13.35;;
22064;SDS011;11197;53.110;8.468;2023-04-15T04:00:11;20.55;;;13.68;;
22064;SDS011;11197;53.110;8.468;2023-04-15T04:02:48;17.85;;;12.63;;
22064;SDS011;11197;53.110;8.468;2023-04-15T04:05:17;19.02;;;13.45;;
22064;SDS011;11197;53.110;8.468;2023-04-15T04:07:43;20.55;;;13.55;;
22064;SDS011;11197;53.110;8.468;2023-04-15T04:10:09;20.23;;;14.02;;
22064;SDS011;11197;53.110;8.468;2023-04-15T04:12:36;17.85;;;12.65;;
22064;SDS011;11197;53.110;8.468;2023-04-15T04:15:02;18.30;;;12.75;;
22064;SDS011;11197;53.110;8.468;2023-04-15T04:17:27;19.33;;;12.75;;
22064;SDS011;11197;53.110;8.468;2023-04-15T04:19:53;19.05;;;13.15;;
22064;SDS011;11197;53.110;8.468;2023-04-15T04:22:22;17.88;;;12.23;;
22064;SDS011;11197;53.110;8.468;2023-04-15T04:24:48;16.55;;;12.95;;
22064;SDS011;11197;53.110;8.468;2023-04-15T04:27:15;18.98;;;12.70;;
22064;SDS011;11197;53.110;8.468;2023-04-15T04:29:41;18.27;;;12.73;;
22064;SDS011;11197;53.110;8.468;2023-04-15T04:32:07;19.08;;;12.65;;
22064;SDS011;11197;53.110;8.468;2023-04-15T04:34:32;17.70;;;12.70;;
22064;SDS011;11197;53.110;8.468;2023-04-15T04:36:58;19.27;;;13.23;;
22064;SDS011;11197;53.110;8.468;2023-04-15T04:39:24;18.00;;;12.70;;
22064;SDS011;11197;53.110;8.468;2023-04-15T04:41:50;19.65;;;13.02;;
22064;SDS011;11197;53.110;8.468;2023-04-15T04:44:16;17.35;;;12.63;;
22064;SDS011;11197;53.110;8.468;2023-04-15T04:46:42;18.88;;;12.93;;
22064;SDS011;11197;53.110;8.468;2023-04-15T04:49:08;17.38;;;12.02;;
22064;SDS011;11197;53.110;8.468;2023-04-15T04:51:34;19.80;;;12.75;;
22064;SDS011;11197;53.110;8.468;2023-04-15T04:54:00;18.80;;;12.73;;
22064;SDS011;11197;53.110;8.468;2023-04-15T04:56:26;19.52;;;13.05;;
22064;SDS011;11197;53.110;8.468;2023-04-15T04:58:52;20.17;;;13.25;;
22064;SDS011;11197;53.110;8.468;2023-04-15T05:01:18;22.90;;;13.75;;
22064;SDS011;11197;53.110;8.468;2023-04-15T05:03:43;20.35;;;13.73;;
22064;SDS011;11197;53.110;8.468;2023-04-15T05:06:09;19.92;;;13.27;;
22064;SDS011;11197;53.110;8.468;2023-04-15T05:08:35;21.50;;;14.00;;
22064;SDS011;11197;53.110;8.468;2023-04-15T05:11:02;20.95;;;14.27;;
22064;SDS011;11197;53.110;8.468;2023-04-15T05:13:31;21.58;;;13.95;;
22064;SDS011;11197;53.110;8.468;2023-04-15T05:15:57;23.67;;;15.35;;
22064;SDS011;11197;53.110;8.468;2023-04-15T05:18:22;23.52;;;15.38;;
22064;SDS011;11197;53.110;8.468;2023-04-15T05:20:48;23.90;;;16.02;;
22064;SDS011;11197;53.110;8.468;2023-04-15T05:23:14;23.17;;;15.32;;
22064;SDS011;11197;53.110;8.468;2023-04-15T05:25:40;26.30;;;16.92;;
22064;SDS011;11197;53.110;8.468;2023-04-15T05:28:06;24.15;;;16.27;;
22064;SDS011;11197;53.110;8.468;2023-04-15T05:30:32;25.15;;;16.60;;
22064;SDS011;11197;53.110;8.468;2023-04-15T05:32:58;24.60;;;15.38;;
22064;SDS011;11197;53.110;8.468;2023-04-15T05:35:24;25.63;;;16.58;;
22064;SDS011;11197;53.110;8.468;2023-04-15T05:37:49;25.30;;;15.80;;
22064;SDS011;11197;53.110;8.468;2023-04-15T05:40:15;23.92;;;15.85;;
22064;SDS011;11197;53.110;8.468;2023-04-15T05:42:41;22.98;;;15.32;;
22064;SDS011;11197;53.110;8.468;2023-04-15T05:45:07;24.00;;;16.80;;
22064;SDS011;11197;53.110;8.468;2023-04-15T05:47:36;24.30;;;16.38;;
22064;SDS011;11197;53.110;8.468;2023-04-15T05:50:02;25.75;;;17.52;;
22064;SDS011;11197;53.110;8.468;2023-04-15T05:52:30;27.35;;;17.98;;
22064;SDS011;11197;53.110;8.468;2023-04-15T05:54:56;25.95;;;17.65;;
22064;SDS011;11197;53.110;8.468;2023-04-15T05:57:21;26.92;;;17.58;;
22064;SDS011;11197;53.110;8.468;2023-04-15T05:59:47;25.90;;;17.17;;
22064;SDS011;11197;53.110;8.468;2023-04-15T06:02:15;26.90;;;17.58;;
22064;SDS011;11197;53.110;8.468;2023-04-15T06:04:41;26.67;;;17.38;;
22064;SDS011;11197;53.110;8.468;2023-04-15T06:07:08;26.67;;;17.25;;
22064;SDS011;11197;53.110;8.468;2023-04-15T06:09:34;26.38;;;17.25;;
22064;SDS011;11197;53.110;8.468;2023-04-15T06:12:00;26.58;;;17.65;;
22064;SDS011;11197;53.110;8.468;2023-04-15T06:14:26;25.92;;;16.83;;
22064;SDS011;11197;53.110;8.468;2023-04-15T06:16:52;26.98;;;17.13;;
22064;SDS011;11197;53.110;8.468;2023-04-15T06:19:18;25.38;;;16.58;;
22064;SDS011;11197;53.110;8.468;2023-04-15T06:21:44;25.67;;;17.23;;
22064;SDS011;11197;53.110;8.468;2023-04-15T06:24:11;25.02;;;16.88;;
22064;SDS011;11197;53.110;8.468;2023-04-15T06:26:37;24.35;;;16.30;;
22064;SDS011;11197;53.110;8.468;2023-04-15T06:29:03;22.42;;;15.20;;
22064;SDS011;11197;53.110;8.468;2023-04-15T06:31:28;23.52;;;15.52;;
22064;SDS011;11197;53.110;8.468;2023-04-15T06:33:54;22.52;;;14.77;;
22064;SDS011;11197;53.110;8.468;2023-04-15T06:36:20;23.52;;;16.10;;
22064;SDS011;11197;53.110;8.468;2023-04-15T06:38:47;22.15;;;14.73;;
22064;SDS011;11197;53.110;8.468;2023-04-15T06:41:13;22.77;;;15.18;;
22064;SDS011;11197;53.110;8.468;2023-04-15T06:43:41;19.33;;;13.63;;
22064;SDS011;11197;53.110;8.468;2023-04-15T06:46:08;20.92;;;13.77;;
22064;SDS011;11197;53.110;8.468;2023-04-15T06:48:34;20.00;;;13.25;;
22064;SDS011;11197;53.110;8.468;2023-04-15T06:51:00;22.38;;;13.00;;
22064;SDS011;11197;53.110;8.468;2023-04-15T06:53:28;17.75;;;12.23;;
22064;SDS011;11197;53.110;8.468;2023-04-15T06:55:54;19.05;;;12.38;;
22064;SDS011;11197;53.110;8.468;2023-04-15T06:58:20;17.77;;;12.13;;
22064;SDS011;11197;53.110;8.468;2023-04-15T07:00:46;16.92;;;11.57;;
22064;SDS011;11197;53.110;8.468;2023-04-15T07:03:12;15.73;;;11.15;;
22064;SDS011;11197;53.110;8.468;2023-04-15T07:05:39;13.75;;;9.48;;
22064;SDS011;11197;53.110;8.468;2023-04-15T07:08:06;13.55;;;9.15;;
22064;SDS011;11197;53.110;8.468;2023-04-15T07:10:32;12.43;;;8.90;;
22064;SDS011;11197;53.110;8.468;2023-04-15T07:13:00;12.13;;;8.75;;
22064;SDS011;11197;53.110;8.468;2023-04-15T07:15:27;12.20;;;8.40;;
22064;SDS011;11197;53.110;8.468;2023-04-15T07:17:53;11.55;;;8.10;;
22064;SDS011;11197;53.110;8.468;2023-04-15T07:20:20;12.25;;;8.25;;
22064;SDS011;11197;53.110;8.468;2023-04-15T07:22:46;11.88;;;8.77;;
22064;SDS011;11197;53.110;8.468;2023-04-15T07:25:13;11.05;;;8.07;;
22064;SDS011;11197;53.110;8.468;2023-04-15T07:27:39;10.90;;;8.32;;
22064;SDS011;11197;53.110;8.468;2023-04-15T07:30:06;11.20;;;8.32;;
22064;SDS011;11197;53.110;8.468;2023-04-15T07:32:33;12.60;;;8.85;;
22064;SDS011;11197;53.110;8.468;2023-04-15T07:34:59;11.45;;;8.40;;
22064;SDS011;11197;53.110;8.468;2023-04-15T07:37:26;11.68;;;8.43;;
22064;SDS011;11197;53.110;8.468;2023-04-15T07:39:52;13.93;;;9.35;;
22064;SDS011;11197;53.110;8.468;2023-04-15T07:42:18;11.90;;;8.55;;
22064;SDS011;11197;53.110;8.468;2023-04-15T07:44:44;11.80;;;8.90;;
22064;SDS011;11197;53.110;8.468;2023-04-15T07:47:10;12.13;;;8.27;;
22064;SDS011;11197;53.110;8.468;2023-04-15T07:49:36;12.40;;;8.18;;
22064;SDS011;11197;53.110;8.468;2023-04-15T07:52:02;12.57;;;7.82;;
22064;SDS011;11197;53.110;8.468;2023-04-15T07:54:28;12.80;;;7.70;;
22064;SDS011;11197;53.110;8.468;2023-04-15T07:56:54;12.15;;;8.00;;
22064;SDS011;11197;53.110;8.468;2023-04-15T07:59:20;12.85;;;7.57;;
22064;SDS011;11197;53.110;8.468;2023-04-15T08:01:46;10.27;;;7.40;;
22064;SDS011;11197;53.110;8.468;2023-04-15T08:04:13;11.13;;;7.55;;
22064;SDS011;11197;53.110;8.468;2023-04-15T08:06:39;9.95;;;6.63;;
22064;SDS011;11197;53.110;8.468;2023-04-15T08:09:06;11.02;;;6.57;;
22064;SDS011;11197;53.110;8.468;2023-04-15T08:11:32;9.10;;;6.45;;
22064;SDS011;11197;53.110;8.468;2023-04-15T08:13:58;8.75;;;5.78;;
22064;SDS011;11197;53.110;8.468;2023-04-15T08:16:24;8.07;;;5.18;;
22064;SDS011;11197;53.110;8.468;2023-04-15T08:18:52;7.43;;;5.35;;
22064;SDS011;11197;53.110;8.468;2023-04-15T08:21:19;8.18;;;4.80;;
22064;SDS011;11197;53.110;8.468;2023-04-15T08:23:46;7.00;;;4.75;;
22064;SDS011;11197;53.110;8.468;2023-04-15T08:26:14;6.63;;;4.55;;
22064;SDS011;11197;53.110;8.468;2023-04-15T08:28:41;7.28;;;4.03;;
22064;SDS011;11197;53.110;8.468;2023-04-15T08:31:08;7.13;;;4.00;;
22064;SDS011;11197;53.110;8.468;2023-04-15T08:33:34;6.43;;;4.20;;
22064;SDS011;11197;53.110;8.468;2023-04-15T08:36:00;6.25;;;3.70;;
22064;SDS011;11197;53.110;8.468;2023-04-15T08:38:26;6.45;;;4.00;;
22064;SDS011;11197;53.110;8.468;2023-04-15T08:40:52;7.38;;;4.18;;
22064;SDS011;11197;53.110;8.468;2023-04-15T08:43:21;6.57;;;3.72;;
22064;SDS011;11197;53.110;8.468;2023-04-15T08:45:51;5.80;;;2.70;;
22064;SDS011;11197;53.110;8.468;2023-04-15T08:48:17;5.57;;;3.80;;
22064;SDS011;11197;53.110;8.468;2023-04-15T08:50:44;5.60;;;3.88;;
22064;SDS011;11197;53.110;8.468;2023-04-15T08:53:11;6.65;;;4.07;;
22064;SDS011;11197;53.110;8.468;2023-04-15T08:55:49;5.68;;;4.00;;
22064;SDS011;11197;53.110;8.468;2023-04-15T08:58:16;6.70;;;3.95;;
22064;SDS011;11197;53.110;8.468;2023-04-15T09:00:43;5.65;;;4.07;;
22064;SDS011;11197;53.110;8.468;2023-04-15T09:03:09;5.72;;;3.75;;
22064;SDS011;11197;53.110;8.468;2023-04-15T09:05:35;6.32;;;3.70;;
22064;SDS011;11197;53.110;8.468;2023-04-15T09:08:02;5.03;;;3.47;;
22064;SDS011;11197;53.110;8.468;2023-04-15T09:10:29;4.35;;;3.28;;
22064;SDS011;11197;53.110;8.468;2023-04-15T09:12:55;7.70;;;3.80;;
22064;SDS011;11197;53.110;8.468;2023-04-15T09:15:25;4.65;;;3.35;;
22064;SDS011;11197;53.110;8.468;2023-04-15T09:17:54;5.60;;;3.45;;
22064;SDS011;11197;53.110;8.468;2023-04-15T09:20:22;5.72;;;3.17;;
22064;SDS011;11197;53.110;8.468;2023-04-15T09:22:49;6.20;;;3.35;;
22064;SDS011;11197;53.110;8.468;2023-04-15T09:27:50;7.22;;;3.25;;
22064;SDS011;11197;53.110;8.468;2023-04-15T09:30:17;5.22;;;3.28;;
22064;SDS011;11197;53.110;8.468;2023-04-15T09:32:50;5.32;;;3.30;;
22064;SDS011;11197;53.110;8.468;2023-04-15T09:35:22;5.63;;;3.00;;
22064;SDS011;11197;53.110;8.468;2023-04-15T09:37:50;4.55;;;2.92;;
22064;SDS011;11197;53.110;8.468;2023-04-15T09:40:35;4.20;;;2.70;;
22064;SDS011;11197;53.110;8.468;2023-04-15T09:43:06;4.68;;;3.33;;
22064;SDS011;11197;53.110;8.468;2023-04-15T09:45:33;4.18;;;2.80;;
22064;SDS011;11197;53.110;8.468;2023-04-15T09:48:21;5.05;;;3.17;;
22064;SDS011;11197;53.110;8.468;2023-04-15T09:50:51;5.47;;;3.78;;
22064;SDS011;11197;53.110;8.468;2023-04-15T09:53:22;6.07;;;3.45;;
22064;SDS011;11197;53.110;8.468;2023-04-15T09:55:53;4.97;;;3.45;;
22064;SDS011;11197;53.110;8.468;2023-04-15T09:58:28;5.95;;;3.30;;
22064;SDS011;11197;53.110;8.468;2023-04-15T10:00:55;4.47;;;3.03;;
22064;SDS011;11197;53.110;8.468;2023-04-15T10:03:23;5.40;;;2.95;;
22064;SDS011;11197;53.110;8.468;2023-04-15T10:05:52;5.03;;;2.90;;
22064;SDS011;11197;53.110;8.468;2023-04-15T10:08:21;6.30;;;3.10;;
22064;SDS011;11197;53.110;8.468;2023-04-15T10:10:49;3.92;;;2.55;;
22064;SDS011;11197;53.110;8.468;2023-04-15T10:13:17;4.55;;;2.80;;
22064;SDS011;11197;53.110;8.468;2023-04-15T10:15:47;4.63;;;2.67;;
22064;SDS011;11197;53.110;8.468;2023-04-15T10:18:37;4.70;;;2.67;;
22064;SDS011;11197;53.110;8.468;2023-04-15T10:21:12;4.88;;;2.70;;
22064;SDS011;11197;53.110;8.468;2023-04-15T10:23:44;4.10;;;2.70;;
22064;SDS011;11197;53.110;8.468;2023-04-15T10:26:11;4.40;;;3.00;;
22064;SDS011;11197;53.110;8.468;2023-04-15T10:28:39;5.13;;;3.22;;
22064;SDS011;11197;53.110;8.468;2023-04-15T10:31:06;6.68;;;3.45;;
22064;SDS011;11197;53.110;8.468;2023-04-15T10:33:33;5.22;;;3.15;;
22064;SDS011;11197;53.110;8.468;2023-04-15T10:36:00;5.57;;;3.70;;
22064;SDS011;11197;53.110;8.468;2023-04-15T10:43:45;5.53;;;4.20;;
22064;SDS011;11197;53.110;8.468;2023-04-15T10:46:34;7.30;;;4.47;;
22064;SDS011;11197;53.110;8.468;2023-04-15T10:51:36;8.05;;;3.72;;
22064;SDS011;11197;53.110;8.468;2023-04-15T10:54:13;6.75;;;4.60;;
22064;SDS011;11197;53.110;8.468;2023-04-15T10:56:42;7.28;;;4.63;;
22064;SDS011;11197;53.110;8.468;2023-04-15T10:59:15;7.55;;;5.05;;
22064;SDS011;11197;53.110;8.468;2023-04-15T11:07:38;8.48;;;5.47;;
22064;SDS011;11197;53.110;8.468;2023-04-15T11:12:52;5.88;;;3.83;;
22064;SDS011;11197;53.110;8.468;2023-04-15T11:15:26;9.73;;;6.40;;
22064;SDS011;11197;53.110;8.468;2023-04-15T11:17:56;8.07;;;6.57;;
22064;SDS011;11197;53.110;8.468;2023-04-15T11:20:49;9.95;;;7.00;;
22064;SDS011;11197;53.110;8.468;2023-04-15T11:23:19;10.65;;;6.97;;
22064;SDS011;11197;53.110;8.468;2023-04-15T11:25:55;10.18;;;7.40;;
22064;SDS011;11197;53.110;8.468;2023-04-15T11:28:28;11.20;;;7.50;;
22064;SDS011;11197;53.110;8.468;2023-04-15T11:30:55;12.13;;;7.90;;
22064;SDS011;11197;53.110;8.468;2023-04-15T11:33:22;11.18;;;7.90;;
22064;SDS011;11197;53.110;8.468;2023-04-15T11:35:49;10.40;;;7.55;;
22064;SDS011;11197;53.110;8.468;2023-04-15T11:38:17;14.05;;;8.27;;
22064;SDS011;11197;53.110;8.468;2023-04-15T11:40:43;11.73;;;8.10;;
22064;SDS011;11197;53.110;8.468;2023-04-15T11:43:14;11.52;;;7.90;;
22064;SDS011;11197;53.110;8.468;2023-04-15T11:45:53;12.00;;;8.10;;
22064;SDS011;11197;53.110;8.468;2023-04-15T11:48:22;12.57;;;8.40;;
22064;SDS011;11197;53.110;8.468;2023-04-15T11:50:54;11.45;;;7.80;;
22064;SDS011;11197;53.110;8.468;2023-04-15T11:53:20;12.18;;;8.75;;
22064;SDS011;11197;53.110;8.468;2023-04-15T11:55:47;13.10;;;8.68;;
22064;SDS011;11197;53.110;8.468;2023-04-15T11:58:15;11.93;;;8.25;;
22064;SDS011;11197;53.110;8.468;2023-04-15T12:00:47;14.57;;;8.90;;
22064;SDS011;11197;53.110;8.468;2023-04-15T12:11:39;20.05;;;11.63;;
22064;SDS011;11197;53.110;8.468;2023-04-15T12:14:09;23.13;;;12.80;;
22064;SDS011;11197;53.110;8.468;2023-04-15T12:16:39;21.17;;;12.18;;
22064;SDS011;11197;53.110;8.468;2023-04-15T12:19:17;21.73;;;12.82;;
22064;SDS011;11197;53.110;8.468;2023-04-15T12:21:52;22.17;;;12.10;;
22064;SDS011;11197;53.110;8.468;2023-04-15T12:24:23;24.35;;;13.50;;
22064;SDS011;11197;53.110;8.468;2023-04-15T12:26:55;22.85;;;13.75;;
22064;SDS011;11197;53.110;8.468;2023-04-15T12:29:26;24.95;;;13.70;;
22064;SDS011;11197;53.110;8.468;2023-04-15T12:34:30;24.13;;;13.27;;
22064;SDS011;11197;53.110;8.468;2023-04-15T12:36:58;28.45;;;14.25;;
22064;SDS011;11197;53.110;8.468;2023-04-15T12:39:27;24.33;;;14.65;;
22064;SDS011;11197;53.110;8.468;2023-04-15T12:41:55;24.55;;;14.50;;
22064;SDS011;11197;53.110;8.468;2023-04-15T12:44:22;26.60;;;14.43;;
22064;SDS011;11197;53.110;8.468;2023-04-15T12:46:48;24.70;;;14.43;;
22064;SDS011;11197;53.110;8.468;2023-04-15T12:49:15;27.67;;;14.80;;
22064;SDS011;11197;53.110;8.468;2023-04-15T12:51:44;28.98;;;15.98;;
22064;SDS011;11197;53.110;8.468;2023-04-15T12:54:10;26.17;;;14.52;;
22064;SDS011;11197;53.110;8.468;2023-04-15T12:56:35;26.48;;;14.88;;
22064;SDS011;11197;53.110;8.468;2023-04-15T12:59:01;30.70;;;16.60;;
22064;SDS011;11197;53.110;8.468;2023-04-15T13:01:27;26.75;;;16.35;;
22064;SDS011;11197;53.110;8.468;2023-04-15T13:03:53;31.92;;;17.25;;
22064;SDS011;11197;53.110;8.468;2023-04-15T13:06:19;28.58;;;16.77;;
22064;SDS011;11197;53.110;8.468;2023-04-15T13:08:45;32.33;;;18.70;;
22064;SDS011;11197;53.110;8.468;2023-04-15T13:11:11;33.80;;;18.40;;
22064;SDS011;11197;53.110;8.468;2023-04-15T13:13:37;33.88;;;19.40;;
22064;SDS011;11197;53.110;8.468;2023-04-15T13:16:03;41.08;;;21.17;;
22064;SDS011;11197;53.110;8.468;2023-04-15T13:18:29;37.88;;;21.02;;
22064;SDS011;11197;53.110;8.468;2023-04-15T13:20:55;36.55;;;22.10;;
22064;SDS011;11197;53.110;8.468;2023-04-15T13:23:21;39.22;;;21.90;;
22064;SDS011;11197;53.110;8.468;2023-04-15T13:25:48;40.78;;;22.55;;
22064;SDS011;11197;53.110;8.468;2023-04-15T13:28:14;42.55;;;24.30;;
22064;SDS011;11197;53.110;8.468;2023-04-15T13:30:39;45.20;;;25.60;;
22064;SDS011;11197;53.110;8.468;2023-04-15T13:33:06;47.50;;;26.42;;
22064;SDS011;11197;53.110;8.468;2023-04-15T13:35:32;50.33;;;27.17;;
22064;SDS011;11197;53.110;8.468;2023-04-15T13:37:58;51.33;;;28.05;;
22064;SDS011;11197;53.110;8.468;2023-04-15T13:40:24;52.92;;;29.80;;
22064;SDS011;11197;53.110;8.468;2023-04-15T13:42:50;52.45;;;29.42;;
22064;SDS011;11197;53.110;8.468;2023-04-15T13:45:17;53.80;;;30.98;;
22064;SDS011;11197;53.110;8.468;2023-04-15T13:47:43;57.35;;;31.23;;
22064;SDS011;11197;53.110;8.468;2023-04-15T13:50:09;57.50;;;31.92;;
22064;SDS011;11197;53.110;8.468;2023-04-15T13:52:35;56.33;;;31.65;;
22064;SDS011;11197;53.110;8.468;2023-04-15T13:55:02;62.70;;;33.40;;
22064;SDS011;11197;53.110;8.468;2023-04-15T13:57:28;62.35;;;33.88;;
22064;SDS011;11197;53.110;8.468;2023-04-15T13:59:55;64.75;;;34.95;;
22064;SDS011;11197;53.110;8.468;2023-04-15T14:02:22;66.30;;;36.78;;
22064;SDS011;11197;53.110;8.468;2023-04-15T14:04:47;66.00;;;36.40;;
22064;SDS011;11197;53.110;8.468;2023-04-15T14:07:13;63.05;;;36.17;;
22064;SDS011;11197;53.110;8.468;2023-04-15T14:09:40;67.20;;;35.30;;
22064;SDS011;11197;53.110;8.468;2023-04-15T14:12:05;58.92;;;35.08;;
22064;SDS011;11197;53.110;8.468;2023-04-15T14:14:31;60.60;;;35.22;;
22064;SDS011;11197;53.110;8.468;2023-04-15T14:16:57;56.55;;;34.22;;
22064;SDS011;11197;53.110;8.468;2023-04-15T14:19:23;54.38;;;32.80;;
22064;SDS011;11197;53.110;8.468;2023-04-15T14:21:49;51.97;;;31.60;;
22064;SDS011;11197;53.110;8.468;2023-04-15T14:24:15;52.58;;;33.10;;
22064;SDS011;11197;53.110;8.468;2023-04-15T14:26:41;53.05;;;33.28;;
22064;SDS011;11197;53.110;8.468;2023-04-15T14:29:08;52.13;;;33.05;;
22064;SDS011;11197;53.110;8.468;2023-04-15T14:31:35;51.67;;;33.00;;
22064;SDS011;11197;53.110;8.468;2023-04-15T14:34:01;51.28;;;32.60;;
22064;SDS011;11197;53.110;8.468;2023-04-15T14:36:27;51.72;;;33.70;;
22064;SDS011;11197;53.110;8.468;2023-04-15T14:38:53;54.78;;;34.53;;
22064;SDS011;11197;53.110;8.468;2023-04-15T14:41:19;52.95;;;33.20;;
22064;SDS011;11197;53.110;8.468;2023-04-15T14:43:45;53.70;;;33.90;;
22064;SDS011;11197;53.110;8.468;2023-04-15T14:46:10;54.33;;;33.53;;
22064;SDS011;11197;53.110;8.468;2023-04-15T14:48:38;51.65;;;33.78;;
22064;SDS011;11197;53.110;8.468;2023-04-15T14:51:04;52.38;;;34.05;;
22064;SDS011;11197;53.110;8.468;2023-04-15T14:53:30;56.13;;;34.50;;
22064;SDS011;11197;53.110;8.468;2023-04-15T14:55:56;58.08;;;34.90;;
22064;SDS011;11197;53.110;8.468;2023-04-15T14:58:25;53.60;;;34.05;;
22064;SDS011;11197;53.110;8.468;2023-04-15T15:00:51;51.85;;;33.38;;